Providence, Illinois
Current Conditions -  °F | °C
As of 3:55 AM on Sunday 25 Jan 2015 (Local Time) from KC75 Reporting Station
Overcast Overcast  
Wind Chill: 27°   Ceiling: 9000
Heat Index: 34°   Visibility: 10mi
Dew Point: 31°   Wind: 8mph
Humidity: 90%   Direction: 70°ENE
Pressure: 29.61"   Gusts: NA
Location:  41.2776°N, 89.5099°W
Report Text: KC75 250955Z AUTO 07007KT 10SM SCT065 OVC090 01/00 A2961 RMK AO2 T00101004
Loading
Personal Weather Stations






























Interactive Weather Map New forecast layout! Learn more

10-Day Weather Forecast

Advertisements
Track Severe Weather on mobile